Morris, Georgia
Current Conditions -  °F | °C
As of 1:08 PM on Monday 26 Jan 2015 (Local Time) from KEUF Reporting Station
Overcast Overcast  
Wind Chill: 50°   Ceiling: 2800
Heat Index: 50°   Visibility: 10mi
Dew Point: 36°   Wind: 7mph
Humidity: 58%   Direction: NA
Pressure: 29.92"   Gusts: 16mph
Location:  31.79°N, 84.95°W
Report Text: KEUF 261808Z AUTO VRB06G14KT 10SM OVC028 10/02 A2992 RMK AO2
Loading
Personal Weather Stations






























Interactive Weather Map New forecast layout! Learn more

10-Day Weather Forecast

Advertisements
Track Severe Weather on mobile